<?xml version="1.0" encoding="UTF-8" standalone="no" ?>
<gpx xmlns="http://www.topografix.com/GPX/1/1" xmlns:xsi="http://www.w3.org/2001/XMLSchema-instance" xsi:schemaLocation="http://www.topografix.com/GPX/1/1 http://www.topografix.com/GPX/1/1/gpx.xsd" version="1.1" creator="VisuGPX - https://www.visugpx.com">
  <metadata>
    <name>FINLANDE - PEDESTRE - IVALO - Balade dans le village.</name>
    <desc><![CDATA[Balade pour découvrir les habitations d\'Ivalo.]]></desc>
  </metadata>
  <trk>
    <name><![CDATA[ACTIVE LOG 008]]></name>
    <trkseg>
      <trkpt lat="68.64936" lon="27.5415">
        <ele>361.59314</ele>
        <time>2014-03-21T12:03:08Z</time>
      </trkpt>
      <trkpt lat="68.64937" lon="27.5415">
        <ele>361.59314</ele>
        <time>2014-03-21T12:03:09Z</time>
      </trkpt>
      <trkpt lat="68.64936" lon="27.5415">
        <ele>355.825195</ele>
        <time>2014-03-21T12:03:10Z</time>
      </trkpt>
      <trkpt lat="68.64936" lon="27.5415">
        <ele>347.653931</ele>
        <time>2014-03-21T12:03:11Z</time>
      </trkpt>
      <trkpt lat="68.64937" lon="27.54151">
        <ele>339.002075</ele>
        <time>2014-03-21T12:03:12Z</time>
      </trkpt>
      <trkpt lat="68.64937" lon="27.54151">
        <ele>331.792114</ele>
        <time>2014-03-21T12:03:13Z</time>
      </trkpt>
      <trkpt lat="68.64937" lon="27.54151">
        <ele>324.582275</ele>
        <time>2014-03-21T12:03:14Z</time>
      </trkpt>
      <trkpt lat="68.64937" lon="27.54151">
        <ele>318.333618</ele>
        <time>2014-03-21T12:03:15Z</time>
      </trkpt>
      <trkpt lat="68.64937" lon="27.54151">
        <ele>311.604492</ele>
        <time>2014-03-21T12:03:16Z</time>
      </trkpt>
      <trkpt lat="68.64937" lon="27.54151">
        <ele>305.355957</ele>
        <time>2014-03-21T12:03:17Z</time>
      </trkpt>
      <trkpt lat="68.64937" lon="27.54152">
        <ele>299.588013</ele>
        <time>2014-03-21T12:03:18Z</time>
      </trkpt>
      <trkpt lat="68.64937" lon="27.54152">
        <ele>293.820068</ele>
        <time>2014-03-21T12:03:19Z</time>
      </trkpt>
      <trkpt lat="68.64937" lon="27.54152">
        <ele>288.052246</ele>
        <time>2014-03-21T12:03:20Z</time>
      </trkpt>
      <trkpt lat="68.64937" lon="27.5415">
        <ele>282.765015</ele>
        <time>2014-03-21T12:03:21Z</time>
      </trkpt>
      <trkpt lat="68.64937" lon="27.54148">
        <ele>277.477661</ele>
        <time>2014-03-21T12:03:22Z</time>
      </trkpt>
      <trkpt lat="68.64936" lon="27.54146">
        <ele>272.671143</ele>
        <time>2014-03-21T12:03:23Z</time>
      </trkpt>
      <trkpt lat="68.64936" lon="27.54144">
        <ele>268.345093</ele>
        <time>2014-03-21T12:03:24Z</time>
      </trkpt>
      <trkpt lat="68.64936" lon="27.54142">
        <ele>264.980591</ele>
        <time>2014-03-21T12:03:25Z</time>
      </trkpt>
      <trkpt lat="68.64936" lon="27.54141">
        <ele>257.770752</ele>
        <time>2014-03-21T12:03:26Z</time>
      </trkpt>
      <trkpt lat="68.64936" lon="27.54139">
        <ele>252.963989</ele>
        <time>2014-03-21T12:03:27Z</time>
      </trkpt>
      <trkpt lat="68.64936" lon="27.54137">
        <ele>249.118774</ele>
        <time>2014-03-21T12:03:28Z</time>
      </trkpt>
      <trkpt lat="68.64935" lon="27.54136">
        <ele>244.792847</ele>
        <time>2014-03-21T12:03:29Z</time>
      </trkpt>
      <trkpt lat="68.64935" lon="27.54134">
        <ele>237.102295</ele>
        <time>2014-03-21T12:03:30Z</time>
      </trkpt>
      <trkpt lat="68.64934" lon="27.54132">
        <ele>237.102295</ele>
        <time>2014-03-21T12:03:31Z</time>
      </trkpt>
      <trkpt lat="68.64934" lon="27.54128">
        <ele>229.411743</ele>
        <time>2014-03-21T12:03:33Z</time>
      </trkpt>
      <trkpt lat="68.64933" lon="27.54127">
        <ele>226.047119</ele>
        <time>2014-03-21T12:03:34Z</time>
      </trkpt>
      <trkpt lat="68.64933" lon="27.54125">
        <ele>223.163208</ele>
        <time>2014-03-21T12:03:35Z</time>
      </trkpt>
      <trkpt lat="68.64933" lon="27.54124">
        <ele>219.317993</ele>
        <time>2014-03-21T12:03:36Z</time>
      </trkpt>
      <trkpt lat="68.64932" lon="27.54122">
        <ele>215.953247</ele>
        <time>2014-03-21T12:03:37Z</time>
      </trkpt>
      <trkpt lat="68.64932" lon="27.5412">
        <ele>212.588623</ele>
        <time>2014-03-21T12:03:38Z</time>
      </trkpt>
      <trkpt lat="68.64932" lon="27.54117">
        <ele>206.820679</ele>
        <time>2014-03-21T12:03:40Z</time>
      </trkpt>
      <trkpt lat="68.64931" lon="27.54115">
        <ele>203.456177</ele>
        <time>2014-03-21T12:03:41Z</time>
      </trkpt>
      <trkpt lat="68.64931" lon="27.54111">
        <ele>198.168945</ele>
        <time>2014-03-21T12:03:43Z</time>
      </trkpt>
      <trkpt lat="68.64931" lon="27.54109">
        <ele>194.804321</ele>
        <time>2014-03-21T12:03:44Z</time>
      </trkpt>
      <trkpt lat="68.6493" lon="27.54105">
        <ele>189.516968</ele>
        <time>2014-03-21T12:03:46Z</time>
      </trkpt>
      <trkpt lat="68.6493" lon="27.54101">
        <ele>184.710571</ele>
        <time>2014-03-21T12:03:48Z</time>
      </trkpt>
      <trkpt lat="68.64929" lon="27.54096">
        <ele>179.903809</ele>
        <time>2014-03-21T12:03:50Z</time>
      </trkpt>
      <trkpt lat="68.64928" lon="27.54092">
        <ele>175.577881</ele>
        <time>2014-03-21T12:03:52Z</time>
      </trkpt>
      <trkpt lat="68.64928" lon="27.54089">
        <ele>172.69397</ele>
        <time>2014-03-21T12:03:53Z</time>
      </trkpt>
      <trkpt lat="68.64927" lon="27.54081">
        <ele>167.887329</ele>
        <time>2014-03-21T12:03:56Z</time>
      </trkpt>
      <trkpt lat="68.64925" lon="27.54077">
        <ele>164.522705</ele>
        <time>2014-03-21T12:03:58Z</time>
      </trkpt>
      <trkpt lat="68.64924" lon="27.54071">
        <ele>159.716187</ele>
        <time>2014-03-21T12:04:01Z</time>
      </trkpt>
      <trkpt lat="68.64922" lon="27.54067">
        <ele>157.793579</ele>
        <time>2014-03-21T12:04:03Z</time>
      </trkpt>
      <trkpt lat="68.64922" lon="27.54064">
        <ele>156.351563</ele>
        <time>2014-03-21T12:04:04Z</time>
      </trkpt>
      <trkpt lat="68.6492" lon="27.54056">
        <ele>151.064209</ele>
        <time>2014-03-21T12:04:08Z</time>
      </trkpt>
      <trkpt lat="68.64918" lon="27.54047">
        <ele>148.18042</ele>
        <time>2014-03-21T12:04:12Z</time>
      </trkpt>
      <trkpt lat="68.64916" lon="27.54037">
        <ele>144.335205</ele>
        <time>2014-03-21T12:04:16Z</time>
      </trkpt>
      <trkpt lat="68.64912" lon="27.54025">
        <ele>140.489868</ele>
        <time>2014-03-21T12:04:21Z</time>
      </trkpt>
      <trkpt lat="68.64911" lon="27.5402">
        <ele>139.528442</ele>
        <time>2014-03-21T12:04:23Z</time>
      </trkpt>
      <trkpt lat="68.64907" lon="27.54005">
        <ele>135.683105</ele>
        <time>2014-03-21T12:04:29Z</time>
      </trkpt>
      <trkpt lat="68.64901" lon="27.53982">
        <ele>131.837891</ele>
        <time>2014-03-21T12:04:38Z</time>
      </trkpt>
      <trkpt lat="68.649" lon="27.5398">
        <ele>131.837891</ele>
        <time>2014-03-21T12:04:39Z</time>
      </trkpt>
      <trkpt lat="68.64888" lon="27.53939">
        <ele>129.915283</ele>
        <time>2014-03-21T12:04:56Z</time>
      </trkpt>
      <trkpt lat="68.64876" lon="27.53882">
        <ele>129.915283</ele>
        <time>2014-03-21T12:05:18Z</time>
      </trkpt>
      <trkpt lat="68.64862" lon="27.53828">
        <ele>130.395996</ele>
        <time>2014-03-21T12:05:40Z</time>
      </trkpt>
      <trkpt lat="68.64845" lon="27.53804">
        <ele>130.876709</ele>
        <time>2014-03-21T12:05:58Z</time>
      </trkpt>
      <trkpt lat="68.64836" lon="27.53788">
        <ele>129.434692</ele>
        <time>2014-03-21T12:06:20Z</time>
      </trkpt>
      <trkpt lat="68.6483" lon="27.53778">
        <ele>129.915283</ele>
        <time>2014-03-21T12:06:33Z</time>
      </trkpt>
      <trkpt lat="68.64823" lon="27.53767">
        <ele>129.915283</ele>
        <time>2014-03-21T12:06:48Z</time>
      </trkpt>
      <trkpt lat="68.6481" lon="27.53751">
        <ele>130.395996</ele>
        <time>2014-03-21T12:07:07Z</time>
      </trkpt>
      <trkpt lat="68.64808" lon="27.53748">
        <ele>130.876709</ele>
        <time>2014-03-21T12:07:26Z</time>
      </trkpt>
      <trkpt lat="68.64809" lon="27.53746">
        <ele>131.3573</ele>
        <time>2014-03-21T12:07:58Z</time>
      </trkpt>
      <trkpt lat="68.64805" lon="27.5374">
        <ele>130.876709</ele>
        <time>2014-03-21T12:08:28Z</time>
      </trkpt>
      <trkpt lat="68.64799" lon="27.53727">
        <ele>130.876709</ele>
        <time>2014-03-21T12:08:40Z</time>
      </trkpt>
      <trkpt lat="68.64789" lon="27.53719">
        <ele>131.3573</ele>
        <time>2014-03-21T12:08:54Z</time>
      </trkpt>
      <trkpt lat="68.64781" lon="27.53722">
        <ele>131.3573</ele>
        <time>2014-03-21T12:09:09Z</time>
      </trkpt>
      <trkpt lat="68.64772" lon="27.53728">
        <ele>130.395996</ele>
        <time>2014-03-21T12:09:29Z</time>
      </trkpt>
      <trkpt lat="68.64765" lon="27.53721">
        <ele>130.395996</ele>
        <time>2014-03-21T12:09:42Z</time>
      </trkpt>
      <trkpt lat="68.64755" lon="27.53707">
        <ele>130.876709</ele>
        <time>2014-03-21T12:09:58Z</time>
      </trkpt>
      <trkpt lat="68.64753" lon="27.53699">
        <ele>130.876709</ele>
        <time>2014-03-21T12:10:15Z</time>
      </trkpt>
      <trkpt lat="68.64743" lon="27.53681">
        <ele>130.395996</ele>
        <time>2014-03-21T12:10:30Z</time>
      </trkpt>
      <trkpt lat="68.64727" lon="27.53653">
        <ele>129.915283</ele>
        <time>2014-03-21T12:10:49Z</time>
      </trkpt>
      <trkpt lat="68.64726" lon="27.53651">
        <ele>130.395996</ele>
        <time>2014-03-21T12:10:50Z</time>
      </trkpt>
      <trkpt lat="68.64713" lon="27.53616">
        <ele>129.434692</ele>
        <time>2014-03-21T12:11:08Z</time>
      </trkpt>
      <trkpt lat="68.64711" lon="27.53613">
        <ele>130.395996</ele>
        <time>2014-03-21T12:11:10Z</time>
      </trkpt>
      <trkpt lat="68.64702" lon="27.53578">
        <ele>129.434692</ele>
        <time>2014-03-21T12:11:26Z</time>
      </trkpt>
      <trkpt lat="68.64686" lon="27.5353">
        <ele>130.395996</ele>
        <time>2014-03-21T12:11:48Z</time>
      </trkpt>
      <trkpt lat="68.64685" lon="27.53527">
        <ele>130.395996</ele>
        <time>2014-03-21T12:11:50Z</time>
      </trkpt>
      <trkpt lat="68.64684" lon="27.53523">
        <ele>129.915283</ele>
        <time>2014-03-21T12:11:52Z</time>
      </trkpt>
      <trkpt lat="68.64676" lon="27.53509">
        <ele>129.915283</ele>
        <time>2014-03-21T12:12:01Z</time>
      </trkpt>
      <trkpt lat="68.64667" lon="27.53474">
        <ele>129.915283</ele>
        <time>2014-03-21T12:12:17Z</time>
      </trkpt>
      <trkpt lat="68.64662" lon="27.53462">
        <ele>129.434692</ele>
        <time>2014-03-21T12:12:23Z</time>
      </trkpt>
      <trkpt lat="68.64657" lon="27.5342">
        <ele>130.395996</ele>
        <time>2014-03-21T12:12:38Z</time>
      </trkpt>
      <trkpt lat="68.64654" lon="27.53365">
        <ele>131.3573</ele>
        <time>2014-03-21T12:12:57Z</time>
      </trkpt>
      <trkpt lat="68.64655" lon="27.53354">
        <ele>130.876709</ele>
        <time>2014-03-21T12:13:01Z</time>
      </trkpt>
      <trkpt lat="68.64643" lon="27.53303">
        <ele>130.876709</ele>
        <time>2014-03-21T12:13:22Z</time>
      </trkpt>
      <trkpt lat="68.64629" lon="27.53245">
        <ele>130.876709</ele>
        <time>2014-03-21T12:13:45Z</time>
      </trkpt>
      <trkpt lat="68.64628" lon="27.5324">
        <ele>132.318604</ele>
        <time>2014-03-21T12:13:52Z</time>
      </trkpt>
      <trkpt lat="68.64623" lon="27.53185">
        <ele>132.318604</ele>
        <time>2014-03-21T12:14:13Z</time>
      </trkpt>
      <trkpt lat="68.64618" lon="27.53127">
        <ele>131.837891</ele>
        <time>2014-03-21T12:14:35Z</time>
      </trkpt>
      <trkpt lat="68.64617" lon="27.53106">
        <ele>131.837891</ele>
        <time>2014-03-21T12:14:43Z</time>
      </trkpt>
      <trkpt lat="68.64617" lon="27.53051">
        <ele>132.318604</ele>
        <time>2014-03-21T12:15:02Z</time>
      </trkpt>
      <trkpt lat="68.64616" lon="27.53007">
        <ele>132.318604</ele>
        <time>2014-03-21T12:15:18Z</time>
      </trkpt>
      <trkpt lat="68.64617" lon="27.52951">
        <ele>132.318604</ele>
        <time>2014-03-21T12:15:37Z</time>
      </trkpt>
      <trkpt lat="68.64618" lon="27.52889">
        <ele>132.318604</ele>
        <time>2014-03-21T12:15:56Z</time>
      </trkpt>
      <trkpt lat="68.6462" lon="27.52879">
        <ele>132.799316</ele>
        <time>2014-03-21T12:16:00Z</time>
      </trkpt>
      <trkpt lat="68.64619" lon="27.52864">
        <ele>132.799316</ele>
        <time>2014-03-21T12:16:05Z</time>
      </trkpt>
      <trkpt lat="68.64621" lon="27.52794">
        <ele>132.318604</ele>
        <time>2014-03-21T12:16:27Z</time>
      </trkpt>
      <trkpt lat="68.64621" lon="27.52781">
        <ele>131.837891</ele>
        <time>2014-03-21T12:16:31Z</time>
      </trkpt>
      <trkpt lat="68.64623" lon="27.52701">
        <ele>130.876709</ele>
        <time>2014-03-21T12:16:55Z</time>
      </trkpt>
      <trkpt lat="68.64626" lon="27.52634">
        <ele>131.837891</ele>
        <time>2014-03-21T12:17:16Z</time>
      </trkpt>
      <trkpt lat="68.64629" lon="27.52565">
        <ele>131.3573</ele>
        <time>2014-03-21T12:17:36Z</time>
      </trkpt>
      <trkpt lat="68.64634" lon="27.52504">
        <ele>130.876709</ele>
        <time>2014-03-21T12:17:54Z</time>
      </trkpt>
      <trkpt lat="68.64638" lon="27.52454">
        <ele>132.799316</ele>
        <time>2014-03-21T12:18:10Z</time>
      </trkpt>
      <trkpt lat="68.64641" lon="27.52384">
        <ele>132.318604</ele>
        <time>2014-03-21T12:18:31Z</time>
      </trkpt>
      <trkpt lat="68.64642" lon="27.52344">
        <ele>132.799316</ele>
        <time>2014-03-21T12:18:49Z</time>
      </trkpt>
      <trkpt lat="68.64644" lon="27.52275">
        <ele>132.318604</ele>
        <time>2014-03-21T12:19:10Z</time>
      </trkpt>
      <trkpt lat="68.64646" lon="27.52195">
        <ele>131.837891</ele>
        <time>2014-03-21T12:19:34Z</time>
      </trkpt>
      <trkpt lat="68.64647" lon="27.52138">
        <ele>131.837891</ele>
        <time>2014-03-21T12:19:51Z</time>
      </trkpt>
      <trkpt lat="68.64648" lon="27.52131">
        <ele>132.318604</ele>
        <time>2014-03-21T12:19:53Z</time>
      </trkpt>
      <trkpt lat="68.64649" lon="27.52061">
        <ele>132.799316</ele>
        <time>2014-03-21T12:20:13Z</time>
      </trkpt>
      <trkpt lat="68.64648" lon="27.51992">
        <ele>131.3573</ele>
        <time>2014-03-21T12:20:33Z</time>
      </trkpt>
      <trkpt lat="68.64646" lon="27.51939">
        <ele>130.876709</ele>
        <time>2014-03-21T12:20:50Z</time>
      </trkpt>
      <trkpt lat="68.64645" lon="27.51879">
        <ele>129.915283</ele>
        <time>2014-03-21T12:21:08Z</time>
      </trkpt>
      <trkpt lat="68.64646" lon="27.51873">
        <ele>129.915283</ele>
        <time>2014-03-21T12:21:10Z</time>
      </trkpt>
      <trkpt lat="68.64648" lon="27.51863">
        <ele>129.434692</ele>
        <time>2014-03-21T12:21:14Z</time>
      </trkpt>
      <trkpt lat="68.64666" lon="27.51836">
        <ele>128.473389</ele>
        <time>2014-03-21T12:21:34Z</time>
      </trkpt>
      <trkpt lat="68.64673" lon="27.51827">
        <ele>127.511963</ele>
        <time>2014-03-21T12:21:50Z</time>
      </trkpt>
      <trkpt lat="68.64698" lon="27.51804">
        <ele>126.069946</ele>
        <time>2014-03-21T12:22:14Z</time>
      </trkpt>
      <trkpt lat="68.64716" lon="27.51791">
        <ele>127.511963</ele>
        <time>2014-03-21T12:22:32Z</time>
      </trkpt>
      <trkpt lat="68.64733" lon="27.51778">
        <ele>129.434692</ele>
        <time>2014-03-21T12:22:52Z</time>
      </trkpt>
      <trkpt lat="68.64734" lon="27.51776">
        <ele>129.434692</ele>
        <time>2014-03-21T12:22:53Z</time>
      </trkpt>
      <trkpt lat="68.64751" lon="27.51751">
        <ele>129.915283</ele>
        <time>2014-03-21T12:23:13Z</time>
      </trkpt>
      <trkpt lat="68.64771" lon="27.51728">
        <ele>130.876709</ele>
        <time>2014-03-21T12:23:33Z</time>
      </trkpt>
      <trkpt lat="68.64783" lon="27.51705">
        <ele>131.3573</ele>
        <time>2014-03-21T12:23:52Z</time>
      </trkpt>
      <trkpt lat="68.64788" lon="27.51692">
        <ele>131.3573</ele>
        <time>2014-03-21T12:24:08Z</time>
      </trkpt>
      <trkpt lat="68.64788" lon="27.51689">
        <ele>131.837891</ele>
        <time>2014-03-21T12:24:31Z</time>
      </trkpt>
      <trkpt lat="68.64803" lon="27.51673">
        <ele>130.876709</ele>
        <time>2014-03-21T12:24:48Z</time>
      </trkpt>
      <trkpt lat="68.64804" lon="27.51673">
        <ele>129.915283</ele>
        <time>2014-03-21T12:24:50Z</time>
      </trkpt>
      <trkpt lat="68.64815" lon="27.51676">
        <ele>130.395996</ele>
        <time>2014-03-21T12:25:09Z</time>
      </trkpt>
      <trkpt lat="68.64822" lon="27.51673">
        <ele>130.395996</ele>
        <time>2014-03-21T12:25:27Z</time>
      </trkpt>
      <trkpt lat="68.64839" lon="27.51657">
        <ele>131.3573</ele>
        <time>2014-03-21T12:25:45Z</time>
      </trkpt>
      <trkpt lat="68.64838" lon="27.5165">
        <ele>130.395996</ele>
        <time>2014-03-21T12:26:04Z</time>
      </trkpt>
      <trkpt lat="68.64826" lon="27.51664">
        <ele>130.876709</ele>
        <time>2014-03-21T12:26:22Z</time>
      </trkpt>
      <trkpt lat="68.64823" lon="27.51665">
        <ele>130.395996</ele>
        <time>2014-03-21T12:26:25Z</time>
      </trkpt>
      <trkpt lat="68.64808" lon="27.51668">
        <ele>130.876709</ele>
        <time>2014-03-21T12:26:45Z</time>
      </trkpt>
      <trkpt lat="68.64805" lon="27.51671">
        <ele>131.3573</ele>
        <time>2014-03-21T12:27:08Z</time>
      </trkpt>
      <trkpt lat="68.64793" lon="27.51684">
        <ele>132.318604</ele>
        <time>2014-03-21T12:27:23Z</time>
      </trkpt>
      <trkpt lat="68.64774" lon="27.5172">
        <ele>132.799316</ele>
        <time>2014-03-21T12:27:45Z</time>
      </trkpt>
      <trkpt lat="68.64754" lon="27.51743">
        <ele>131.3573</ele>
        <time>2014-03-21T12:28:06Z</time>
      </trkpt>
      <trkpt lat="68.64737" lon="27.51764">
        <ele>130.395996</ele>
        <time>2014-03-21T12:28:22Z</time>
      </trkpt>
      <trkpt lat="68.64722" lon="27.51787">
        <ele>129.434692</ele>
        <time>2014-03-21T12:28:40Z</time>
      </trkpt>
      <trkpt lat="68.64713" lon="27.51785">
        <ele>128.473389</ele>
        <time>2014-03-21T12:28:51Z</time>
      </trkpt>
      <trkpt lat="68.64693" lon="27.51804">
        <ele>128.473389</ele>
        <time>2014-03-21T12:29:11Z</time>
      </trkpt>
      <trkpt lat="68.64672" lon="27.51816">
        <ele>128.954102</ele>
        <time>2014-03-21T12:29:31Z</time>
      </trkpt>
      <trkpt lat="68.64657" lon="27.51834">
        <ele>129.915283</ele>
        <time>2014-03-21T12:29:48Z</time>
      </trkpt>
      <trkpt lat="68.64647" lon="27.5185">
        <ele>129.915283</ele>
        <time>2014-03-21T12:30:06Z</time>
      </trkpt>
      <trkpt lat="68.64644" lon="27.51852">
        <ele>130.876709</ele>
        <time>2014-03-21T12:30:21Z</time>
      </trkpt>
      <trkpt lat="68.6464" lon="27.51876">
        <ele>132.318604</ele>
        <time>2014-03-21T12:30:37Z</time>
      </trkpt>
      <trkpt lat="68.6464" lon="27.51884">
        <ele>131.837891</ele>
        <time>2014-03-21T12:30:59Z</time>
      </trkpt>
      <trkpt lat="68.64641" lon="27.51919">
        <ele>132.799316</ele>
        <time>2014-03-21T12:31:16Z</time>
      </trkpt>
      <trkpt lat="68.64643" lon="27.51967">
        <ele>132.799316</ele>
        <time>2014-03-21T12:31:37Z</time>
      </trkpt>
      <trkpt lat="68.64643" lon="27.52011">
        <ele>132.799316</ele>
        <time>2014-03-21T12:31:54Z</time>
      </trkpt>
      <trkpt lat="68.64645" lon="27.52062">
        <ele>133.279907</ele>
        <time>2014-03-21T12:32:15Z</time>
      </trkpt>
      <trkpt lat="68.64644" lon="27.52077">
        <ele>132.799316</ele>
        <time>2014-03-21T12:32:20Z</time>
      </trkpt>
      <trkpt lat="68.64644" lon="27.5213">
        <ele>133.279907</ele>
        <time>2014-03-21T12:32:39Z</time>
      </trkpt>
      <trkpt lat="68.64645" lon="27.52174">
        <ele>134.241211</ele>
        <time>2014-03-21T12:32:57Z</time>
      </trkpt>
      <trkpt lat="68.64645" lon="27.52201">
        <ele>133.279907</ele>
        <time>2014-03-21T12:33:11Z</time>
      </trkpt>
      <trkpt lat="68.64644" lon="27.52251">
        <ele>133.279907</ele>
        <time>2014-03-21T12:33:30Z</time>
      </trkpt>
      <trkpt lat="68.64643" lon="27.52303">
        <ele>133.279907</ele>
        <time>2014-03-21T12:33:49Z</time>
      </trkpt>
      <trkpt lat="68.64641" lon="27.52364">
        <ele>133.760498</ele>
        <time>2014-03-21T12:34:10Z</time>
      </trkpt>
      <trkpt lat="68.6464" lon="27.5242">
        <ele>134.241211</ele>
        <time>2014-03-21T12:34:29Z</time>
      </trkpt>
      <trkpt lat="68.64636" lon="27.52479">
        <ele>133.760498</ele>
        <time>2014-03-21T12:34:50Z</time>
      </trkpt>
      <trkpt lat="68.6463" lon="27.52536">
        <ele>133.279907</ele>
        <time>2014-03-21T12:35:10Z</time>
      </trkpt>
      <trkpt lat="68.64627" lon="27.52597">
        <ele>133.760498</ele>
        <time>2014-03-21T12:35:31Z</time>
      </trkpt>
      <trkpt lat="68.64625" lon="27.52643">
        <ele>133.760498</ele>
        <time>2014-03-21T12:35:52Z</time>
      </trkpt>
      <trkpt lat="68.64622" lon="27.52704">
        <ele>133.760498</ele>
        <time>2014-03-21T12:36:12Z</time>
      </trkpt>
      <trkpt lat="68.64621" lon="27.52774">
        <ele>134.241211</ele>
        <time>2014-03-21T12:36:34Z</time>
      </trkpt>
      <trkpt lat="68.6462" lon="27.52838">
        <ele>134.721924</ele>
        <time>2014-03-21T12:36:56Z</time>
      </trkpt>
      <trkpt lat="68.64622" lon="27.52865">
        <ele>134.241211</ele>
        <time>2014-03-21T12:37:15Z</time>
      </trkpt>
      <trkpt lat="68.64618" lon="27.52894">
        <ele>134.241211</ele>
        <time>2014-03-21T12:37:34Z</time>
      </trkpt>
      <trkpt lat="68.64617" lon="27.52945">
        <ele>134.241211</ele>
        <time>2014-03-21T12:37:54Z</time>
      </trkpt>
      <trkpt lat="68.64616" lon="27.52983">
        <ele>133.760498</ele>
        <time>2014-03-21T12:38:11Z</time>
      </trkpt>
      <trkpt lat="68.64617" lon="27.53014">
        <ele>134.241211</ele>
        <time>2014-03-21T12:38:28Z</time>
      </trkpt>
      <trkpt lat="68.64618" lon="27.53051">
        <ele>134.241211</ele>
        <time>2014-03-21T12:38:44Z</time>
      </trkpt>
      <trkpt lat="68.64616" lon="27.53104">
        <ele>133.760498</ele>
        <time>2014-03-21T12:39:03Z</time>
      </trkpt>
      <trkpt lat="68.6462" lon="27.53158">
        <ele>134.241211</ele>
        <time>2014-03-21T12:39:22Z</time>
      </trkpt>
      <trkpt lat="68.64624" lon="27.53212">
        <ele>133.760498</ele>
        <time>2014-03-21T12:39:45Z</time>
      </trkpt>
      <trkpt lat="68.64626" lon="27.53224">
        <ele>133.760498</ele>
        <time>2014-03-21T12:40:06Z</time>
      </trkpt>
      <trkpt lat="68.64628" lon="27.53225">
        <ele>133.279907</ele>
        <time>2014-03-21T12:40:30Z</time>
      </trkpt>
      <trkpt lat="68.6463" lon="27.53226">
        <ele>133.760498</ele>
        <time>2014-03-21T12:41:08Z</time>
      </trkpt>
      <trkpt lat="68.6463" lon="27.53228">
        <ele>133.760498</ele>
        <time>2014-03-21T12:41:25Z</time>
      </trkpt>
      <trkpt lat="68.64629" lon="27.5324">
        <ele>133.279907</ele>
        <time>2014-03-21T12:41:42Z</time>
      </trkpt>
      <trkpt lat="68.64627" lon="27.53249">
        <ele>131.3573</ele>
        <time>2014-03-21T12:42:08Z</time>
      </trkpt>
      <trkpt lat="68.64625" lon="27.53252">
        <ele>130.395996</ele>
        <time>2014-03-21T12:42:16Z</time>
      </trkpt>
      <trkpt lat="68.64621" lon="27.53259">
        <ele>130.395996</ele>
        <time>2014-03-21T12:42:23Z</time>
      </trkpt>
      <trkpt lat="68.6461" lon="27.5328">
        <ele>130.876709</ele>
        <time>2014-03-21T12:42:38Z</time>
      </trkpt>
      <trkpt lat="68.64596" lon="27.53301">
        <ele>130.876709</ele>
        <time>2014-03-21T12:42:54Z</time>
      </trkpt>
      <trkpt lat="68.64585" lon="27.5332">
        <ele>130.876709</ele>
        <time>2014-03-21T12:43:10Z</time>
      </trkpt>
      <trkpt lat="68.64588" lon="27.53324">
        <ele>130.876709</ele>
        <time>2014-03-21T12:43:22Z</time>
      </trkpt>
      <trkpt lat="68.64587" lon="27.53325">
        <ele>130.395996</ele>
        <time>2014-03-21T12:43:35Z</time>
      </trkpt>
      <trkpt lat="68.64584" lon="27.53329">
        <ele>128.954102</ele>
        <time>2014-03-21T12:43:58Z</time>
      </trkpt>
      <trkpt lat="68.64582" lon="27.5333">
        <ele>130.395996</ele>
        <time>2014-03-21T12:44:17Z</time>
      </trkpt>
      <trkpt lat="68.64576" lon="27.53331">
        <ele>130.395996</ele>
        <time>2014-03-21T12:44:23Z</time>
      </trkpt>
      <trkpt lat="68.64564" lon="27.53332">
        <ele>129.434692</ele>
        <time>2014-03-21T12:44:38Z</time>
      </trkpt>
      <trkpt lat="68.64553" lon="27.53339">
        <ele>129.915283</ele>
        <time>2014-03-21T12:44:53Z</time>
      </trkpt>
      <trkpt lat="68.6455" lon="27.53342">
        <ele>129.434692</ele>
        <time>2014-03-21T12:44:56Z</time>
      </trkpt>
      <trkpt lat="68.64529" lon="27.53339">
        <ele>129.434692</ele>
        <time>2014-03-21T12:45:15Z</time>
      </trkpt>
      <trkpt lat="68.64522" lon="27.53339">
        <ele>129.915283</ele>
        <time>2014-03-21T12:45:22Z</time>
      </trkpt>
      <trkpt lat="68.64507" lon="27.53335">
        <ele>129.915283</ele>
        <time>2014-03-21T12:45:37Z</time>
      </trkpt>
      <trkpt lat="68.6449" lon="27.53346">
        <ele>132.799316</ele>
        <time>2014-03-21T12:45:57Z</time>
      </trkpt>
      <trkpt lat="68.64482" lon="27.53354">
        <ele>132.318604</ele>
        <time>2014-03-21T12:46:13Z</time>
      </trkpt>
      <trkpt lat="68.64481" lon="27.53356">
        <ele>132.799316</ele>
        <time>2014-03-21T12:46:28Z</time>
      </trkpt>
      <trkpt lat="68.64466" lon="27.53371">
        <ele>135.202515</ele>
        <time>2014-03-21T12:46:47Z</time>
      </trkpt>
      <trkpt lat="68.64462" lon="27.53389">
        <ele>136.16394</ele>
        <time>2014-03-21T12:47:03Z</time>
      </trkpt>
      <trkpt lat="68.64451" lon="27.53385">
        <ele>135.202515</ele>
        <time>2014-03-21T12:47:20Z</time>
      </trkpt>
      <trkpt lat="68.64452" lon="27.53385">
        <ele>135.202515</ele>
        <time>2014-03-21T12:47:41Z</time>
      </trkpt>
      <trkpt lat="68.64449" lon="27.53372">
        <ele>135.202515</ele>
        <time>2014-03-21T12:48:06Z</time>
      </trkpt>
      <trkpt lat="68.64447" lon="27.53355">
        <ele>135.683105</ele>
        <time>2014-03-21T12:48:13Z</time>
      </trkpt>
      <trkpt lat="68.64439" lon="27.53295">
        <ele>135.683105</ele>
        <time>2014-03-21T12:48:35Z</time>
      </trkpt>
      <trkpt lat="68.64428" lon="27.53238">
        <ele>136.644653</ele>
        <time>2014-03-21T12:48:55Z</time>
      </trkpt>
      <trkpt lat="68.64416" lon="27.53179">
        <ele>136.644653</ele>
        <time>2014-03-21T12:49:16Z</time>
      </trkpt>
      <trkpt lat="68.64404" lon="27.53117">
        <ele>136.644653</ele>
        <time>2014-03-21T12:49:37Z</time>
      </trkpt>
      <trkpt lat="68.6439" lon="27.53046">
        <ele>137.605835</ele>
        <time>2014-03-21T12:50:00Z</time>
      </trkpt>
      <trkpt lat="68.64378" lon="27.52988">
        <ele>137.125244</ele>
        <time>2014-03-21T12:50:19Z</time>
      </trkpt>
      <trkpt lat="68.64367" lon="27.52925">
        <ele>137.125244</ele>
        <time>2014-03-21T12:50:41Z</time>
      </trkpt>
      <trkpt lat="68.64359" lon="27.529">
        <ele>136.644653</ele>
        <time>2014-03-21T12:50:58Z</time>
      </trkpt>
      <trkpt lat="68.64359" lon="27.52889">
        <ele>136.644653</ele>
        <time>2014-03-21T12:51:02Z</time>
      </trkpt>
      <trkpt lat="68.64358" lon="27.52838">
        <ele>136.644653</ele>
        <time>2014-03-21T12:51:22Z</time>
      </trkpt>
      <trkpt lat="68.64357" lon="27.52827">
        <ele>137.125244</ele>
        <time>2014-03-21T12:51:47Z</time>
      </trkpt>
      <trkpt lat="68.64354" lon="27.52859">
        <ele>137.125244</ele>
        <time>2014-03-21T12:52:06Z</time>
      </trkpt>
      <trkpt lat="68.64354" lon="27.52864">
        <ele>137.605835</ele>
        <time>2014-03-21T12:52:08Z</time>
      </trkpt>
      <trkpt lat="68.64347" lon="27.52928">
        <ele>137.125244</ele>
        <time>2014-03-21T12:52:30Z</time>
      </trkpt>
      <trkpt lat="68.64337" lon="27.52999">
        <ele>137.125244</ele>
        <time>2014-03-21T12:52:53Z</time>
      </trkpt>
      <trkpt lat="68.64338" lon="27.53024">
        <ele>137.125244</ele>
        <time>2014-03-21T12:53:07Z</time>
      </trkpt>
      <trkpt lat="68.64337" lon="27.53026">
        <ele>137.125244</ele>
        <time>2014-03-21T12:53:10Z</time>
      </trkpt>
      <trkpt lat="68.64335" lon="27.53028">
        <ele>137.125244</ele>
        <time>2014-03-21T12:53:12Z</time>
      </trkpt>
      <trkpt lat="68.64328" lon="27.53071">
        <ele>137.125244</ele>
        <time>2014-03-21T12:53:27Z</time>
      </trkpt>
      <trkpt lat="68.64324" lon="27.53144">
        <ele>137.125244</ele>
        <time>2014-03-21T12:53:51Z</time>
      </trkpt>
      <trkpt lat="68.64324" lon="27.53151">
        <ele>137.125244</ele>
        <time>2014-03-21T12:53:53Z</time>
      </trkpt>
      <trkpt lat="68.6432" lon="27.53204">
        <ele>137.605835</ele>
        <time>2014-03-21T12:54:11Z</time>
      </trkpt>
      <trkpt lat="68.64318" lon="27.5328">
        <ele>138.086548</ele>
        <time>2014-03-21T12:54:35Z</time>
      </trkpt>
      <trkpt lat="68.64315" lon="27.53347">
        <ele>137.125244</ele>
        <time>2014-03-21T12:54:56Z</time>
      </trkpt>
      <trkpt lat="68.64313" lon="27.53411">
        <ele>137.605835</ele>
        <time>2014-03-21T12:55:15Z</time>
      </trkpt>
      <trkpt lat="68.64311" lon="27.53485">
        <ele>138.567261</ele>
        <time>2014-03-21T12:55:36Z</time>
      </trkpt>
      <trkpt lat="68.64309" lon="27.53558">
        <ele>137.605835</ele>
        <time>2014-03-21T12:55:57Z</time>
      </trkpt>
      <trkpt lat="68.64308" lon="27.53627">
        <ele>139.047852</ele>
        <time>2014-03-21T12:56:17Z</time>
      </trkpt>
      <trkpt lat="68.64307" lon="27.53678">
        <ele>137.605835</ele>
        <time>2014-03-21T12:56:33Z</time>
      </trkpt>
      <trkpt lat="68.64304" lon="27.53751">
        <ele>137.125244</ele>
        <time>2014-03-21T12:56:56Z</time>
      </trkpt>
      <trkpt lat="68.64303" lon="27.53762">
        <ele>135.683105</ele>
        <time>2014-03-21T12:57:00Z</time>
      </trkpt>
      <trkpt lat="68.64302" lon="27.53805">
        <ele>136.644653</ele>
        <time>2014-03-21T12:57:20Z</time>
      </trkpt>
      <trkpt lat="68.64302" lon="27.53822">
        <ele>138.086548</ele>
        <time>2014-03-21T12:57:25Z</time>
      </trkpt>
      <trkpt lat="68.64301" lon="27.53835">
        <ele>136.644653</ele>
        <time>2014-03-21T12:57:29Z</time>
      </trkpt>
      <trkpt lat="68.64299" lon="27.5386">
        <ele>136.16394</ele>
        <time>2014-03-21T12:57:47Z</time>
      </trkpt>
      <trkpt lat="68.64298" lon="27.53891">
        <ele>136.644653</ele>
        <time>2014-03-21T12:58:02Z</time>
      </trkpt>
      <trkpt lat="68.64297" lon="27.5391">
        <ele>137.125244</ele>
        <time>2014-03-21T12:58:15Z</time>
      </trkpt>
      <trkpt lat="68.64293" lon="27.53974">
        <ele>137.125244</ele>
        <time>2014-03-21T12:58:34Z</time>
      </trkpt>
      <trkpt lat="68.64281" lon="27.54053">
        <ele>137.125244</ele>
        <time>2014-03-21T12:58:58Z</time>
      </trkpt>
      <trkpt lat="68.64276" lon="27.54078">
        <ele>138.086548</ele>
        <time>2014-03-21T12:59:21Z</time>
      </trkpt>
      <trkpt lat="68.64273" lon="27.54106">
        <ele>138.086548</ele>
        <time>2014-03-21T12:59:37Z</time>
      </trkpt>
      <trkpt lat="68.6427" lon="27.54135">
        <ele>137.605835</ele>
        <time>2014-03-21T12:59:47Z</time>
      </trkpt>
      <trkpt lat="68.64266" lon="27.54196">
        <ele>138.567261</ele>
        <time>2014-03-21T13:00:07Z</time>
      </trkpt>
      <trkpt lat="68.64263" lon="27.54262">
        <ele>139.047852</ele>
        <time>2014-03-21T13:00:28Z</time>
      </trkpt>
      <trkpt lat="68.64264" lon="27.54272">
        <ele>140.009155</ele>
        <time>2014-03-21T13:00:32Z</time>
      </trkpt>
      <trkpt lat="68.64269" lon="27.54292">
        <ele>139.047852</ele>
        <time>2014-03-21T13:00:49Z</time>
      </trkpt>
      <trkpt lat="68.64269" lon="27.54304">
        <ele>139.528442</ele>
        <time>2014-03-21T13:00:57Z</time>
      </trkpt>
      <trkpt lat="68.6426" lon="27.54353">
        <ele>139.528442</ele>
        <time>2014-03-21T13:01:16Z</time>
      </trkpt>
      <trkpt lat="68.64255" lon="27.54412">
        <ele>138.567261</ele>
        <time>2014-03-21T13:01:37Z</time>
      </trkpt>
      <trkpt lat="68.64253" lon="27.54458">
        <ele>138.086548</ele>
        <time>2014-03-21T13:01:52Z</time>
      </trkpt>
      <trkpt lat="68.64253" lon="27.54531">
        <ele>138.086548</ele>
        <time>2014-03-21T13:02:14Z</time>
      </trkpt>
      <trkpt lat="68.64252" lon="27.54601">
        <ele>137.605835</ele>
        <time>2014-03-21T13:02:34Z</time>
      </trkpt>
      <trkpt lat="68.64251" lon="27.54676">
        <ele>137.125244</ele>
        <time>2014-03-21T13:02:55Z</time>
      </trkpt>
      <trkpt lat="68.6425" lon="27.54743">
        <ele>137.125244</ele>
        <time>2014-03-21T13:03:14Z</time>
      </trkpt>
      <trkpt lat="68.64248" lon="27.54819">
        <ele>136.16394</ele>
        <time>2014-03-21T13:03:36Z</time>
      </trkpt>
      <trkpt lat="68.64245" lon="27.54885">
        <ele>136.644653</ele>
        <time>2014-03-21T13:03:56Z</time>
      </trkpt>
      <trkpt lat="68.64234" lon="27.54947">
        <ele>137.125244</ele>
        <time>2014-03-21T13:04:16Z</time>
      </trkpt>
      <trkpt lat="68.64217" lon="27.55015">
        <ele>137.125244</ele>
        <time>2014-03-21T13:04:39Z</time>
      </trkpt>
      <trkpt lat="68.64208" lon="27.55084">
        <ele>137.605835</ele>
        <time>2014-03-21T13:05:00Z</time>
      </trkpt>
      <trkpt lat="68.64194" lon="27.55148">
        <ele>136.644653</ele>
        <time>2014-03-21T13:05:21Z</time>
      </trkpt>
      <trkpt lat="68.64177" lon="27.5521">
        <ele>137.125244</ele>
        <time>2014-03-21T13:05:42Z</time>
      </trkpt>
      <trkpt lat="68.64161" lon="27.55276">
        <ele>138.086548</ele>
        <time>2014-03-21T13:06:04Z</time>
      </trkpt>
      <trkpt lat="68.64159" lon="27.55291">
        <ele>137.125244</ele>
        <time>2014-03-21T13:06:09Z</time>
      </trkpt>
      <trkpt lat="68.64159" lon="27.55306">
        <ele>137.605835</ele>
        <time>2014-03-21T13:06:14Z</time>
      </trkpt>
      <trkpt lat="68.64176" lon="27.55357">
        <ele>137.605835</ele>
        <time>2014-03-21T13:06:33Z</time>
      </trkpt>
      <trkpt lat="68.64194" lon="27.55399">
        <ele>136.644653</ele>
        <time>2014-03-21T13:06:51Z</time>
      </trkpt>
      <trkpt lat="68.64212" lon="27.5544">
        <ele>136.644653</ele>
        <time>2014-03-21T13:07:09Z</time>
      </trkpt>
      <trkpt lat="68.64234" lon="27.55483">
        <ele>137.125244</ele>
        <time>2014-03-21T13:07:30Z</time>
      </trkpt>
      <trkpt lat="68.64258" lon="27.55533">
        <ele>137.605835</ele>
        <time>2014-03-21T13:07:52Z</time>
      </trkpt>
      <trkpt lat="68.64282" lon="27.55579">
        <ele>137.125244</ele>
        <time>2014-03-21T13:08:14Z</time>
      </trkpt>
      <trkpt lat="68.64304" lon="27.55625">
        <ele>136.16394</ele>
        <time>2014-03-21T13:08:35Z</time>
      </trkpt>
      <trkpt lat="68.64319" lon="27.55655">
        <ele>135.683105</ele>
        <time>2014-03-21T13:08:51Z</time>
      </trkpt>
      <trkpt lat="68.64334" lon="27.55654">
        <ele>135.202515</ele>
        <time>2014-03-21T13:09:07Z</time>
      </trkpt>
      <trkpt lat="68.64335" lon="27.5565">
        <ele>135.202515</ele>
        <time>2014-03-21T13:09:09Z</time>
      </trkpt>
      <trkpt lat="68.64352" lon="27.55594">
        <ele>134.241211</ele>
        <time>2014-03-21T13:09:32Z</time>
      </trkpt>
      <trkpt lat="68.6436" lon="27.55566">
        <ele>135.683105</ele>
        <time>2014-03-21T13:09:45Z</time>
      </trkpt>
      <trkpt lat="68.64374" lon="27.55515">
        <ele>136.16394</ele>
        <time>2014-03-21T13:10:03Z</time>
      </trkpt>
      <trkpt lat="68.64392" lon="27.55457">
        <ele>136.644653</ele>
        <time>2014-03-21T13:10:24Z</time>
      </trkpt>
      <trkpt lat="68.64406" lon="27.55409">
        <ele>137.125244</ele>
        <time>2014-03-21T13:10:43Z</time>
      </trkpt>
      <trkpt lat="68.64419" lon="27.55364">
        <ele>136.644653</ele>
        <time>2014-03-21T13:11:00Z</time>
      </trkpt>
      <trkpt lat="68.64435" lon="27.55308">
        <ele>136.644653</ele>
        <time>2014-03-21T13:11:20Z</time>
      </trkpt>
      <trkpt lat="68.64446" lon="27.55271">
        <ele>135.683105</ele>
        <time>2014-03-21T13:11:37Z</time>
      </trkpt>
      <trkpt lat="68.64456" lon="27.55236">
        <ele>136.16394</ele>
        <time>2014-03-21T13:11:51Z</time>
      </trkpt>
      <trkpt lat="68.64472" lon="27.55179">
        <ele>135.683105</ele>
        <time>2014-03-21T13:12:11Z</time>
      </trkpt>
      <trkpt lat="68.64488" lon="27.55119">
        <ele>135.683105</ele>
        <time>2014-03-21T13:12:32Z</time>
      </trkpt>
      <trkpt lat="68.64505" lon="27.55061">
        <ele>136.644653</ele>
        <time>2014-03-21T13:12:52Z</time>
      </trkpt>
      <trkpt lat="68.64522" lon="27.55">
        <ele>135.683105</ele>
        <time>2014-03-21T13:13:13Z</time>
      </trkpt>
      <trkpt lat="68.64538" lon="27.54938">
        <ele>136.16394</ele>
        <time>2014-03-21T13:13:34Z</time>
      </trkpt>
      <trkpt lat="68.64553" lon="27.54887">
        <ele>135.202515</ele>
        <time>2014-03-21T13:13:52Z</time>
      </trkpt>
      <trkpt lat="68.64562" lon="27.5486">
        <ele>135.683105</ele>
        <time>2014-03-21T13:14:02Z</time>
      </trkpt>
      <trkpt lat="68.64578" lon="27.548">
        <ele>134.241211</ele>
        <time>2014-03-21T13:14:23Z</time>
      </trkpt>
      <trkpt lat="68.64595" lon="27.54742">
        <ele>134.721924</ele>
        <time>2014-03-21T13:14:43Z</time>
      </trkpt>
      <trkpt lat="68.64613" lon="27.54677">
        <ele>133.760498</ele>
        <time>2014-03-21T13:15:06Z</time>
      </trkpt>
      <trkpt lat="68.64629" lon="27.54614">
        <ele>133.760498</ele>
        <time>2014-03-21T13:15:27Z</time>
      </trkpt>
      <trkpt lat="68.64646" lon="27.54543">
        <ele>133.760498</ele>
        <time>2014-03-21T13:15:51Z</time>
      </trkpt>
      <trkpt lat="68.64658" lon="27.54481">
        <ele>134.241211</ele>
        <time>2014-03-21T13:16:11Z</time>
      </trkpt>
      <trkpt lat="68.64672" lon="27.54413">
        <ele>135.202515</ele>
        <time>2014-03-21T13:16:33Z</time>
      </trkpt>
      <trkpt lat="68.64702" lon="27.54409">
        <ele>135.202515</ele>
        <time>2014-03-21T13:16:55Z</time>
      </trkpt>
      <trkpt lat="68.64736" lon="27.5441">
        <ele>134.721924</ele>
        <time>2014-03-21T13:17:20Z</time>
      </trkpt>
      <trkpt lat="68.64764" lon="27.54413">
        <ele>134.241211</ele>
        <time>2014-03-21T13:17:41Z</time>
      </trkpt>
      <trkpt lat="68.64789" lon="27.54415">
        <ele>134.241211</ele>
        <time>2014-03-21T13:18:00Z</time>
      </trkpt>
      <trkpt lat="68.64822" lon="27.54415">
        <ele>134.241211</ele>
        <time>2014-03-21T13:18:23Z</time>
      </trkpt>
      <trkpt lat="68.64846" lon="27.54415">
        <ele>134.241211</ele>
        <time>2014-03-21T13:18:41Z</time>
      </trkpt>
      <trkpt lat="68.64876" lon="27.54417">
        <ele>133.279907</ele>
        <time>2014-03-21T13:19:03Z</time>
      </trkpt>
      <trkpt lat="68.64906" lon="27.5442">
        <ele>133.279907</ele>
        <time>2014-03-21T13:19:27Z</time>
      </trkpt>
      <trkpt lat="68.64918" lon="27.54419">
        <ele>133.279907</ele>
        <time>2014-03-21T13:19:37Z</time>
      </trkpt>
      <trkpt lat="68.64948" lon="27.54417">
        <ele>132.318604</ele>
        <time>2014-03-21T13:19:58Z</time>
      </trkpt>
      <trkpt lat="68.64971" lon="27.5442">
        <ele>133.760498</ele>
        <time>2014-03-21T13:20:19Z</time>
      </trkpt>
      <trkpt lat="68.64972" lon="27.54431">
        <ele>132.799316</ele>
        <time>2014-03-21T13:20:24Z</time>
      </trkpt>
      <trkpt lat="68.64988" lon="27.54476">
        <ele>132.799316</ele>
        <time>2014-03-21T13:20:44Z</time>
      </trkpt>
      <trkpt lat="68.65001" lon="27.54519">
        <ele>131.837891</ele>
        <time>2014-03-21T13:21:05Z</time>
      </trkpt>
      <trkpt lat="68.65009" lon="27.5454">
        <ele>131.837891</ele>
        <time>2014-03-21T13:21:23Z</time>
      </trkpt>
      <trkpt lat="68.65008" lon="27.54528">
        <ele>131.837891</ele>
        <time>2014-03-21T13:21:42Z</time>
      </trkpt>
      <trkpt lat="68.65003" lon="27.54514">
        <ele>131.837891</ele>
        <time>2014-03-21T13:21:54Z</time>
      </trkpt>
      <trkpt lat="68.65001" lon="27.54512">
        <ele>131.837891</ele>
        <time>2014-03-21T13:21:56Z</time>
      </trkpt>
      <trkpt lat="68.64995" lon="27.54489">
        <ele>131.837891</ele>
        <time>2014-03-21T13:22:13Z</time>
      </trkpt>
      <trkpt lat="68.64986" lon="27.5445">
        <ele>132.799316</ele>
        <time>2014-03-21T13:22:29Z</time>
      </trkpt>
      <trkpt lat="68.64988" lon="27.54437">
        <ele>132.799316</ele>
        <time>2014-03-21T13:22:34Z</time>
      </trkpt>
      <trkpt lat="68.65" lon="27.54408">
        <ele>133.279907</ele>
        <time>2014-03-21T13:22:53Z</time>
      </trkpt>
      <trkpt lat="68.65001" lon="27.544">
        <ele>133.279907</ele>
        <time>2014-03-21T13:23:05Z</time>
      </trkpt>
      <trkpt lat="68.65023" lon="27.54399">
        <ele>132.799316</ele>
        <time>2014-03-21T13:23:26Z</time>
      </trkpt>
      <trkpt lat="68.65046" lon="27.54397">
        <ele>132.799316</ele>
        <time>2014-03-21T13:23:45Z</time>
      </trkpt>
      <trkpt lat="68.6507" lon="27.54392">
        <ele>132.799316</ele>
        <time>2014-03-21T13:24:05Z</time>
      </trkpt>
      <trkpt lat="68.65094" lon="27.54385">
        <ele>132.318604</ele>
        <time>2014-03-21T13:24:24Z</time>
      </trkpt>
      <trkpt lat="68.65124" lon="27.54375">
        <ele>131.837891</ele>
        <time>2014-03-21T13:24:48Z</time>
      </trkpt>
      <trkpt lat="68.6515" lon="27.54364">
        <ele>131.3573</ele>
        <time>2014-03-21T13:25:08Z</time>
      </trkpt>
      <trkpt lat="68.65179" lon="27.54354">
        <ele>131.3573</ele>
        <time>2014-03-21T13:25:31Z</time>
      </trkpt>
      <trkpt lat="68.65208" lon="27.54343">
        <ele>130.876709</ele>
        <time>2014-03-21T13:25:54Z</time>
      </trkpt>
      <trkpt lat="68.65237" lon="27.5433">
        <ele>131.3573</ele>
        <time>2014-03-21T13:26:16Z</time>
      </trkpt>
      <trkpt lat="68.65266" lon="27.54316">
        <ele>131.3573</ele>
        <time>2014-03-21T13:26:39Z</time>
      </trkpt>
      <trkpt lat="68.65292" lon="27.54299">
        <ele>130.876709</ele>
        <time>2014-03-21T13:26:58Z</time>
      </trkpt>
      <trkpt lat="68.65318" lon="27.54287">
        <ele>130.876709</ele>
        <time>2014-03-21T13:27:19Z</time>
      </trkpt>
      <trkpt lat="68.65342" lon="27.54271">
        <ele>130.876709</ele>
        <time>2014-03-21T13:27:38Z</time>
      </trkpt>
      <trkpt lat="68.65368" lon="27.54256">
        <ele>130.395996</ele>
        <time>2014-03-21T13:27:59Z</time>
      </trkpt>
      <trkpt lat="68.65394" lon="27.54238">
        <ele>130.876709</ele>
        <time>2014-03-21T13:28:20Z</time>
      </trkpt>
      <trkpt lat="68.65417" lon="27.54224">
        <ele>129.915283</ele>
        <time>2014-03-21T13:28:38Z</time>
      </trkpt>
      <trkpt lat="68.65442" lon="27.54209">
        <ele>130.395996</ele>
        <time>2014-03-21T13:28:58Z</time>
      </trkpt>
      <trkpt lat="68.65461" lon="27.54193">
        <ele>130.876709</ele>
        <time>2014-03-21T13:29:14Z</time>
      </trkpt>
      <trkpt lat="68.65476" lon="27.54182">
        <ele>129.915283</ele>
        <time>2014-03-21T13:29:30Z</time>
      </trkpt>
      <trkpt lat="68.65472" lon="27.5418">
        <ele>130.395996</ele>
        <time>2014-03-21T13:29:35Z</time>
      </trkpt>
      <trkpt lat="68.65472" lon="27.54169">
        <ele>130.395996</ele>
        <time>2014-03-21T13:29:39Z</time>
      </trkpt>
      <trkpt lat="68.65466" lon="27.54146">
        <ele>129.915283</ele>
        <time>2014-03-21T13:29:48Z</time>
      </trkpt>
      <trkpt lat="68.65433" lon="27.54161">
        <ele>130.395996</ele>
        <time>2014-03-21T13:30:14Z</time>
      </trkpt>
      <trkpt lat="68.6541" lon="27.54175">
        <ele>129.915283</ele>
        <time>2014-03-21T13:30:31Z</time>
      </trkpt>
      <trkpt lat="68.65384" lon="27.5419">
        <ele>130.395996</ele>
        <time>2014-03-21T13:30:53Z</time>
      </trkpt>
      <trkpt lat="68.65383" lon="27.5419">
        <ele>129.915283</ele>
        <time>2014-03-21T13:31:17Z</time>
      </trkpt>
      <trkpt lat="68.65382" lon="27.54189">
        <ele>129.915283</ele>
        <time>2014-03-21T13:32:27Z</time>
      </trkpt>
      <trkpt lat="68.65382" lon="27.5419">
        <ele>129.915283</ele>
        <time>2014-03-21T13:32:52Z</time>
      </trkpt>
      <trkpt lat="68.65384" lon="27.5419">
        <ele>129.915283</ele>
        <time>2014-03-21T13:33:32Z</time>
      </trkpt>
      <trkpt lat="68.65383" lon="27.54189">
        <ele>130.876709</ele>
        <time>2014-03-21T13:33:58Z</time>
      </trkpt>
      <trkpt lat="68.65382" lon="27.54189">
        <ele>129.915283</ele>
        <time>2014-03-21T13:34:22Z</time>
      </trkpt>
      <trkpt lat="68.65383" lon="27.5419">
        <ele>130.395996</ele>
        <time>2014-03-21T13:34:46Z</time>
      </trkpt>
      <trkpt lat="68.65381" lon="27.54188">
        <ele>129.434692</ele>
        <time>2014-03-21T13:35:22Z</time>
      </trkpt>
      <trkpt lat="68.6538" lon="27.54188">
        <ele>129.434692</ele>
        <time>2014-03-21T13:35:46Z</time>
      </trkpt>
      <trkpt lat="68.65382" lon="27.54187">
        <ele>128.473389</ele>
        <time>2014-03-21T13:36:07Z</time>
      </trkpt>
      <trkpt lat="68.65373" lon="27.54192">
        <ele>128.954102</ele>
        <time>2014-03-21T13:36:42Z</time>
      </trkpt>
      <trkpt lat="68.65334" lon="27.54214">
        <ele>129.915283</ele>
        <time>2014-03-21T13:37:12Z</time>
      </trkpt>
      <trkpt lat="68.65304" lon="27.54231">
        <ele>129.915283</ele>
        <time>2014-03-21T13:37:35Z</time>
      </trkpt>
      <trkpt lat="68.65291" lon="27.54234">
        <ele>128.954102</ele>
        <time>2014-03-21T13:37:51Z</time>
      </trkpt>
      <trkpt lat="68.65276" lon="27.5424">
        <ele>128.954102</ele>
        <time>2014-03-21T13:38:03Z</time>
      </trkpt>
      <trkpt lat="68.65264" lon="27.54246">
        <ele>129.434692</ele>
        <time>2014-03-21T13:38:14Z</time>
      </trkpt>
      <trkpt lat="68.65232" lon="27.54261">
        <ele>128.954102</ele>
        <time>2014-03-21T13:38:39Z</time>
      </trkpt>
      <trkpt lat="68.65202" lon="27.54276">
        <ele>129.434692</ele>
        <time>2014-03-21T13:39:03Z</time>
      </trkpt>
      <trkpt lat="68.65168" lon="27.54291">
        <ele>128.954102</ele>
        <time>2014-03-21T13:39:29Z</time>
      </trkpt>
      <trkpt lat="68.65135" lon="27.54304">
        <ele>129.434692</ele>
        <time>2014-03-21T13:39:53Z</time>
      </trkpt>
      <trkpt lat="68.65106" lon="27.54312">
        <ele>128.954102</ele>
        <time>2014-03-21T13:40:12Z</time>
      </trkpt>
      <trkpt lat="68.65087" lon="27.543">
        <ele>128.473389</ele>
        <time>2014-03-21T13:40:30Z</time>
      </trkpt>
      <trkpt lat="68.65083" lon="27.54283">
        <ele>128.954102</ele>
        <time>2014-03-21T13:40:38Z</time>
      </trkpt>
      <trkpt lat="68.65063" lon="27.54249">
        <ele>129.434692</ele>
        <time>2014-03-21T13:40:59Z</time>
      </trkpt>
      <trkpt lat="68.65062" lon="27.54248">
        <ele>129.915283</ele>
        <time>2014-03-21T13:41:00Z</time>
      </trkpt>
      <trkpt lat="68.65055" lon="27.54234">
        <ele>129.434692</ele>
        <time>2014-03-21T13:41:07Z</time>
      </trkpt>
      <trkpt lat="68.65036" lon="27.54191">
        <ele>130.395996</ele>
        <time>2014-03-21T13:41:28Z</time>
      </trkpt>
      <trkpt lat="68.65034" lon="27.54188">
        <ele>129.915283</ele>
        <time>2014-03-21T13:41:30Z</time>
      </trkpt>
      <trkpt lat="68.65033" lon="27.54183">
        <ele>130.395996</ele>
        <time>2014-03-21T13:41:32Z</time>
      </trkpt>
      <trkpt lat="68.65023" lon="27.54174">
        <ele>129.915283</ele>
        <time>2014-03-21T13:41:41Z</time>
      </trkpt>
      <trkpt lat="68.65014" lon="27.5418">
        <ele>129.915283</ele>
        <time>2014-03-21T13:41:56Z</time>
      </trkpt>
      <trkpt lat="68.65015" lon="27.54179">
        <ele>129.434692</ele>
        <time>2014-03-21T13:42:08Z</time>
      </trkpt>
      <trkpt lat="68.65023" lon="27.54168">
        <ele>130.395996</ele>
        <time>2014-03-21T13:42:22Z</time>
      </trkpt>
      <trkpt lat="68.65023" lon="27.54179">
        <ele>131.3573</ele>
        <time>2014-03-21T13:42:49Z</time>
      </trkpt>
      <trkpt lat="68.65023" lon="27.54179">
        <ele>131.3573</ele>
        <time>2014-03-21T13:42:55Z</time>
      </trkpt>
      <trkpt lat="68.65023" lon="27.54138">
        <ele>131.3573</ele>
        <time>2014-03-21T13:43:09Z</time>
      </trkpt>
      <trkpt lat="68.65021" lon="27.54128">
        <ele>130.395996</ele>
        <time>2014-03-21T13:43:12Z</time>
      </trkpt>
      <trkpt lat="68.65015" lon="27.54119">
        <ele>131.3573</ele>
        <time>2014-03-21T13:43:24Z</time>
      </trkpt>
      <trkpt lat="68.65005" lon="27.54111">
        <ele>131.837891</ele>
        <time>2014-03-21T13:43:33Z</time>
      </trkpt>
      <trkpt lat="68.64995" lon="27.54097">
        <ele>130.876709</ele>
        <time>2014-03-21T13:43:37Z</time>
      </trkpt>
      <trkpt lat="68.64989" lon="27.54109">
        <ele>130.876709</ele>
        <time>2014-03-21T13:43:44Z</time>
      </trkpt>
      <trkpt lat="68.6499" lon="27.5413">
        <ele>131.3573</ele>
        <time>2014-03-21T13:44:01Z</time>
      </trkpt>
      <trkpt lat="68.64986" lon="27.54128">
        <ele>131.3573</ele>
        <time>2014-03-21T13:44:24Z</time>
      </trkpt>
      <trkpt lat="68.64988" lon="27.5413">
        <ele>130.395996</ele>
        <time>2014-03-21T13:44:39Z</time>
      </trkpt>
      <trkpt lat="68.64988" lon="27.54136">
        <ele>128.954102</ele>
        <time>2014-03-21T13:46:01Z</time>
      </trkpt>
      <trkpt lat="68.64988" lon="27.5414">
        <ele>129.434692</ele>
        <time>2014-03-21T13:46:30Z</time>
      </trkpt>
      <trkpt lat="68.64989" lon="27.54143">
        <ele>128.954102</ele>
        <time>2014-03-21T13:46:57Z</time>
      </trkpt>
      <trkpt lat="68.64987" lon="27.54128">
        <ele>128.954102</ele>
        <time>2014-03-21T13:47:33Z</time>
      </trkpt>
      <trkpt lat="68.64988" lon="27.54125">
        <ele>128.473389</ele>
        <time>2014-03-21T13:47:57Z</time>
      </trkpt>
      <trkpt lat="68.6499" lon="27.54113">
        <ele>128.473389</ele>
        <time>2014-03-21T13:48:36Z</time>
      </trkpt>
      <trkpt lat="68.64979" lon="27.54135">
        <ele>127.511963</ele>
        <time>2014-03-21T13:49:39Z</time>
      </trkpt>
      <trkpt lat="68.64986" lon="27.54129">
        <ele>126.069946</ele>
        <time>2014-03-21T13:50:54Z</time>
      </trkpt>
      <trkpt lat="68.64987" lon="27.54151">
        <ele>126.550659</ele>
        <time>2014-03-21T13:51:46Z</time>
      </trkpt>
      <trkpt lat="68.64986" lon="27.54154">
        <ele>126.550659</ele>
        <time>2014-03-21T13:52:06Z</time>
      </trkpt>
      <trkpt lat="68.64983" lon="27.5415">
        <ele>126.550659</ele>
        <time>2014-03-21T13:52:26Z</time>
      </trkpt>
      <trkpt lat="68.64983" lon="27.54148">
        <ele>126.550659</ele>
        <time>2014-03-21T13:52:43Z</time>
      </trkpt>
      <trkpt lat="68.64984" lon="27.54134">
        <ele>126.069946</ele>
        <time>2014-03-21T13:53:10Z</time>
      </trkpt>
      <trkpt lat="68.64985" lon="27.54126">
        <ele>126.069946</ele>
        <time>2014-03-21T13:53:34Z</time>
      </trkpt>
      <trkpt lat="68.64985" lon="27.54125">
        <ele>125.589355</ele>
        <time>2014-03-21T13:54:06Z</time>
      </trkpt>
      <trkpt lat="68.6499" lon="27.54142">
        <ele>125.589355</ele>
        <time>2014-03-21T13:55:05Z</time>
      </trkpt>
      <trkpt lat="68.64989" lon="27.54132">
        <ele>126.069946</ele>
        <time>2014-03-21T13:55:37Z</time>
      </trkpt>
      <trkpt lat="68.6499" lon="27.54129">
        <ele>125.589355</ele>
        <time>2014-03-21T13:55:56Z</time>
      </trkpt>
      <trkpt lat="68.6499" lon="27.54123">
        <ele>126.069946</ele>
        <time>2014-03-21T13:56:18Z</time>
      </trkpt>
      <trkpt lat="68.6499" lon="27.54134">
        <ele>125.589355</ele>
        <time>2014-03-21T13:56:43Z</time>
      </trkpt>
      <trkpt lat="68.64992" lon="27.54136">
        <ele>126.069946</ele>
        <time>2014-03-21T13:57:11Z</time>
      </trkpt>
      <trkpt lat="68.64991" lon="27.54133">
        <ele>126.550659</ele>
        <time>2014-03-21T13:57:33Z</time>
      </trkpt>
      <trkpt lat="68.64989" lon="27.54119">
        <ele>126.550659</ele>
        <time>2014-03-21T13:57:56Z</time>
      </trkpt>
      <trkpt lat="68.64986" lon="27.54121">
        <ele>126.550659</ele>
        <time>2014-03-21T13:58:20Z</time>
      </trkpt>
      <trkpt lat="68.64986" lon="27.54122">
        <ele>126.550659</ele>
        <time>2014-03-21T13:58:41Z</time>
      </trkpt>
      <trkpt lat="68.64987" lon="27.54117">
        <ele>127.031372</ele>
        <time>2014-03-21T13:59:03Z</time>
      </trkpt>
      <trkpt lat="68.64986" lon="27.5412">
        <ele>126.069946</ele>
        <time>2014-03-21T13:59:30Z</time>
      </trkpt>
      <trkpt lat="68.64985" lon="27.54114">
        <ele>126.550659</ele>
        <time>2014-03-21T13:59:47Z</time>
      </trkpt>
      <trkpt lat="68.64984" lon="27.54116">
        <ele>125.589355</ele>
        <time>2014-03-21T14:00:08Z</time>
      </trkpt>
      <trkpt lat="68.64988" lon="27.54131">
        <ele>126.069946</ele>
        <time>2014-03-21T14:00:43Z</time>
      </trkpt>
      <trkpt lat="68.64985" lon="27.54133">
        <ele>126.069946</ele>
        <time>2014-03-21T14:01:19Z</time>
      </trkpt>
      <trkpt lat="68.64988" lon="27.54122">
        <ele>126.069946</ele>
        <time>2014-03-21T14:02:00Z</time>
      </trkpt>
      <trkpt lat="68.64988" lon="27.54127">
        <ele>127.031372</ele>
        <time>2014-03-21T14:02:24Z</time>
      </trkpt>
      <trkpt lat="68.64989" lon="27.54128">
        <ele>127.511963</ele>
        <time>2014-03-21T14:02:49Z</time>
      </trkpt>
      <trkpt lat="68.6499" lon="27.54128">
        <ele>127.511963</ele>
        <time>2014-03-21T14:03:20Z</time>
      </trkpt>
      <trkpt lat="68.64988" lon="27.5413">
        <ele>127.511963</ele>
        <time>2014-03-21T14:04:29Z</time>
      </trkpt>
      <trkpt lat="68.64987" lon="27.54132">
        <ele>126.550659</ele>
        <time>2014-03-21T14:04:53Z</time>
      </trkpt>
      <trkpt lat="68.64988" lon="27.54135">
        <ele>126.069946</ele>
        <time>2014-03-21T14:05:11Z</time>
      </trkpt>
      <trkpt lat="68.64988" lon="27.54138">
        <ele>126.550659</ele>
        <time>2014-03-21T14:05:32Z</time>
      </trkpt>
      <trkpt lat="68.64988" lon="27.54132">
        <ele>127.031372</ele>
        <time>2014-03-21T14:05:47Z</time>
      </trkpt>
      <trkpt lat="68.64983" lon="27.54138">
        <ele>127.031372</ele>
        <time>2014-03-21T14:06:15Z</time>
      </trkpt>
      <trkpt lat="68.64984" lon="27.54137">
        <ele>126.550659</ele>
        <time>2014-03-21T14:06:45Z</time>
      </trkpt>
      <trkpt lat="68.64981" lon="27.54138">
        <ele>126.550659</ele>
        <time>2014-03-21T14:07:05Z</time>
      </trkpt>
      <trkpt lat="68.64982" lon="27.5414">
        <ele>126.550659</ele>
        <time>2014-03-21T14:07:19Z</time>
      </trkpt>
      <trkpt lat="68.64988" lon="27.54123">
        <ele>125.589355</ele>
        <time>2014-03-21T14:07:38Z</time>
      </trkpt>
      <trkpt lat="68.64986" lon="27.54118">
        <ele>125.589355</ele>
        <time>2014-03-21T14:07:48Z</time>
      </trkpt>
      <trkpt lat="68.6499" lon="27.54122">
        <ele>126.069946</ele>
        <time>2014-03-21T14:08:02Z</time>
      </trkpt>
      <trkpt lat="68.64986" lon="27.54129">
        <ele>126.069946</ele>
        <time>2014-03-21T14:08:07Z</time>
      </trkpt>
    </trkseg>
  </trk>
</gpx>